Time;durP1;ratioP1;P1;durP2;ratioP2;P2;SDS_P1;SDS_P2;PMS_P1;PMS_P2;Temp;Humidity;BMP_temperature;BMP_pressure;BME280_temperature;BME280_humidity;BME280_pressure;Samples;Min_cycle;Max_cycle;Signal;HPM_P1;HPM_P2
2023/11/03 00:00:28;;;;;;;6.03;0.70;;;;;;;10.39;100.00;97810.09;6228129;28;20052;-75
2023/11/03 00:03:30;;;;;;;3.80;0.90;;;;;;;10.40;100.00;97805.66;6227565;28;20050;-75
2023/11/03 00:06:31;;;;;;;5.03;0.77;;;;;;;10.44;100.00;97803.56;6228108;28;20130;-75
2023/11/03 00:09:33;;;;;;;1.48;0.45;;;;;;;10.41;100.00;97804.72;6227846;28;20133;-75
2023/11/03 00:12:36;;;;;;;4.22;0.82;;;;;;;10.46;100.00;97799.00;6227530;28;20049;-75
2023/11/03 00:15:39;;;;;;;3.03;0.80;;;;;;;10.46;100.00;97794.56;6227668;28;20053;-75
2023/11/03 00:18:41;;;;;;;3.60;1.45;;;;;;;10.45;100.00;97798.19;6226950;28;20072;-75
2023/11/03 00:21:43;;;;;;;4.22;0.75;;;;;;;10.44;100.00;97782.56;6226765;28;20077;-75
2023/11/03 00:24:45;;;;;;;1.42;0.60;;;;;;;10.39;100.00;97793.53;6227536;28;20068;-75
2023/11/03 00:27:47;;;;;;;1.80;0.60;;;;;;;10.39;100.00;97783.84;6227592;28;20048;-75
2023/11/03 00:30:49;;;;;;;1.30;0.57;;;;;;;10.35;100.00;97787.75;6226954;28;20370;-76
2023/11/03 00:33:51;;;;;;;1.63;0.50;;;;;;;10.33;100.00;97783.66;6227296;28;20060;-75
2023/11/03 00:36:52;;;;;;;4.53;0.95;;;;;;;10.31;100.00;97785.59;6226958;28;20042;-76
2023/11/03 00:39:54;;;;;;;2.25;0.60;;;;;;;10.24;100.00;97795.88;6227158;28;20062;-75
2023/11/03 00:42:59;;;;;;;7.28;0.73;;;;;;;10.18;100.00;97793.03;6226979;28;20050;-75
2023/11/03 00:46:03;;;;;;;3.22;0.60;;;;;;;10.19;100.00;97797.28;6227250;28;20049;-75
2023/11/03 00:49:04;;;;;;;3.17;1.15;;;;;;;10.20;100.00;97807.63;6227102;28;20060;-75
2023/11/03 00:52:07;;;;;;;3.03;0.57;;;;;;;10.19;100.00;97808.63;6225728;28;20050;-75
2023/11/03 00:55:09;;;;;;;3.38;0.68;;;;;;;10.20;100.00;97791.88;6226771;28;20050;-75
2023/11/03 00:58:10;;;;;;;3.38;0.70;;;;;;;10.25;100.00;97794.09;6226732;28;20065;-76
2023/11/03 01:01:13;;;;;;;5.55;1.33;;;;;;;10.21;100.00;97792.69;6226138;28;20045;-75
2023/11/03 01:04:14;;;;;;;3.45;0.88;;;;;;;10.23;100.00;97782.91;6226372;28;20049;-75
2023/11/03 01:07:16;;;;;;;6.53;0.88;;;;;;;10.20;100.00;97786.63;6226764;28;20469;-75
2023/11/03 01:10:18;;;;;;;4.03;0.70;;;;;;;10.15;100.00;97784.47;6226432;28;20065;-75
2023/11/03 01:13:21;;;;;;;2.28;1.05;;;;;;;10.11;100.00;97791.00;6226484;28;20076;-75
2023/11/03 01:16:25;;;;;;;1.23;0.32;;;;;;;10.12;100.00;97781.31;6226378;28;20046;-75
2023/11/03 01:19:28;;;;;;;5.97;1.10;;;;;;;10.09;100.00;97784.25;6226354;28;20335;-76
2023/11/03 01:22:29;;;;;;;7.88;0.80;;;;;;;10.07;100.00;97789.63;6225768;28;20358;-75
2023/11/03 01:25:31;;;;;;;3.92;0.60;;;;;;;10.04;100.00;97789.16;6226471;28;20054;-75
2023/11/03 01:28:33;;;;;;;5.97;0.43;;;;;;;10.06;100.00;97795.06;6225211;28;20076;-74
2023/11/03 01:31:37;;;;;;;3.25;0.70;;;;;;;10.04;100.00;97795.22;6225587;28;20050;-75
2023/11/03 01:34:39;;;;;;;5.03;1.10;;;;;;;10.06;100.00;97792.44;6226283;28;20056;-74
2023/11/03 01:37:42;;;;;;;4.47;0.80;;;;;;;10.11;100.00;97798.03;6226001;28;20049;-75
2023/11/03 01:40:44;;;;;;;3.25;0.47;;;;;;;10.10;100.00;97802.47;6226180;28;20450;-75
2023/11/03 01:44:01;;;;;;;3.90;0.40;;;;;;;10.09;100.00;97798.19;6225751;28;20046;-74
2023/11/03 01:47:04;;;;;;;7.63;1.33;;;;;;;10.07;100.00;97800.13;6223208;28;20050;-75
2023/11/03 01:50:08;;;;;;;1.77;0.52;;;;;;;10.04;100.00;97802.25;6225808;28;20077;-75
2023/11/03 01:53:10;;;;;;;5.40;0.52;;;;;;;9.99;100.00;97810.59;6225701;28;20062;-75
2023/11/03 01:56:11;;;;;;;2.90;0.70;;;;;;;10.01;100.00;97807.81;6225747;28;20457;-75
2023/11/03 01:59:13;;;;;;;1.98;0.68;;;;;;;10.00;100.00;97803.53;6225965;28;20050;-74
2023/11/03 02:02:16;;;;;;;7.32;0.70;;;;;;;9.99;100.00;97817.59;6225170;28;20465;-75
2023/11/03 02:05:18;;;;;;;2.42;0.98;;;;;;;9.94;100.00;97825.09;6225674;28;20046;-75
2023/11/03 02:08:19;;;;;;;0.93;0.38;;;;;;;9.96;100.00;97810.06;6225798;28;20131;-76
2023/11/03 02:11:26;;;;;;;6.90;0.93;;;;;;;9.93;100.00;97808.53;6225614;28;20054;-75
2023/11/03 02:14:28;;;;;;;2.22;0.63;;;;;;;9.84;100.00;97801.56;6225665;28;20057;-74
2023/11/03 02:17:31;;;;;;;7.25;0.90;;;;;;;9.86;100.00;97799.66;6225437;28;20061;-74
2023/11/03 02:20:32;;;;;;;2.92;0.73;;;;;;;9.91;100.00;97795.59;6225635;28;20057;-74
2023/11/03 02:23:35;;;;;;;2.33;0.50;;;;;;;9.91;100.00;97806.06;6225005;28;20462;-75
2023/11/03 02:26:37;;;;;;;2.53;0.60;;;;;;;10.00;100.00;97806.16;6225580;28;20172;-75
2023/11/03 02:29:38;;;;;;;3.03;0.73;;;;;;;10.07;100.00;97810.63;6224952;28;20053;-75
2023/11/03 02:32:40;;;;;;;3.05;1.05;;;;;;;10.01;100.00;97815.66;6225342;28;20139;-74
2023/11/03 02:35:42;;;;;;;5.35;0.60;;;;;;;10.10;100.00;97814.78;6225297;28;20054;-75
2023/11/03 02:38:45;;;;;;;6.82;1.30;;;;;;;10.03;100.00;97819.78;6225300;28;20054;-75
2023/11/03 02:41:46;;;;;;;3.70;0.73;;;;;;;10.02;100.00;97818.13;6228496;28;20056;-75
2023/11/03 02:44:48;;;;;;;6.13;0.80;;;;;;;9.95;100.00;97819.72;6230068;28;20054;-75
2023/11/03 02:47:50;;;;;;;2.28;0.75;;;;;;;9.95;100.00;97822.34;6229823;28;20049;-75
2023/11/03 02:50:51;;;;;;;3.17;0.63;;;;;;;9.96;100.00;97831.03;6229271;28;20501;-75
2023/11/03 02:53:54;;;;;;;5.63;0.77;;;;;;;9.91;100.00;97827.06;6228889;28;20053;-75
2023/11/03 02:56:56;;;;;;;4.13;0.70;;;;;;;9.96;100.00;97831.88;6229238;28;20053;-75
2023/11/03 02:59:57;;;;;;;3.85;0.90;;;;;;;9.97;100.00;97827.44;6229449;28;20049;-75
2023/11/03 03:03:00;;;;;;;5.03;0.68;;;;;;;10.00;100.00;97835.00;6228936;28;20050;-75
2023/11/03 03:06:01;;;;;;;1.42;0.70;;;;;;;10.01;100.00;97828.78;6229352;28;20053;-75
2023/11/03 03:09:04;;;;;;;5.70;0.68;;;;;;;10.03;100.00;97840.75;6229340;28;20061;-75
2023/11/03 03:12:06;;;;;;;7.82;1.10;;;;;;;10.05;100.00;97843.25;6228781;28;20441;-75
2023/11/03 03:15:08;;;;;;;5.55;0.82;;;;;;;10.03;100.00;97832.06;6229184;28;20053;-74
2023/11/03 03:18:10;;;;;;;3.88;0.90;;;;;;;9.95;100.00;97830.22;6229004;28;20056;-75
2023/11/03 03:21:11;;;;;;;4.88;0.68;;;;;;;9.98;100.00;97832.53;6228472;28;20065;-75
2023/11/03 03:24:14;;;;;;;1.63;0.70;;;;;;;9.93;100.00;97839.19;6228880;28;20464;-75
2023/11/03 03:27:15;;;;;;;9.25;0.95;;;;;;;9.84;100.00;97844.34;6228776;28;20370;-75
2023/11/03 03:30:17;;;;;;;4.13;0.60;;;;;;;9.81;100.00;97830.72;6228532;28;20076;-75
2023/11/03 03:33:18;;;;;;;6.03;1.52;;;;;;;9.82;100.00;97829.75;6228656;28;20049;-75
2023/11/03 03:36:20;;;;;;;3.50;0.85;;;;;;;9.80;100.00;97832.50;6228405;28;20042;-75
2023/11/03 03:39:22;;;;;;;5.47;0.65;;;;;;;9.81;100.00;97825.47;6228689;28;20439;-75
2023/11/03 03:42:24;;;;;;;2.92;0.82;;;;;;;9.75;100.00;97841.81;6228172;28;20050;-75
2023/11/03 03:45:26;;;;;;;3.50;0.70;;;;;;;9.78;100.00;97837.09;6227929;28;20053;-75
2023/11/03 03:48:27;;;;;;;4.57;0.95;;;;;;;9.76;100.00;97839.03;6228250;28;20042;-75
2023/11/03 03:51:28;;;;;;;4.78;0.55;;;;;;;9.78;100.00;97834.47;6227112;28;20053;-75
2023/11/03 03:54:31;;;;;;;5.40;0.75;;;;;;;9.75;100.00;97837.38;6228231;28;20046;-74
2023/11/03 03:57:33;;;;;;;8.70;0.93;;;;;;;9.79;100.00;97827.44;6227864;28;20050;-75
2023/11/03 04:00:34;;;;;;;5.75;0.75;;;;;;;9.79;100.00;97828.25;6228093;28;20077;-75
2023/11/03 04:03:36;;;;;;;4.45;0.82;;;;;;;9.78;100.00;97817.91;6227594;28;20049;-75
2023/11/03 04:06:38;;;;;;;3.95;1.02;;;;;;;9.73;100.00;97820.97;6227916;28;20327;-75
2023/11/03 04:09:41;;;;;;;7.20;0.73;;;;;;;9.74;100.00;97816.56;6227794;28;20049;-74
2023/11/03 04:12:42;;;;;;;4.20;0.73;;;;;;;9.71;100.00;97825.53;6227722;28;20057;-75
2023/11/03 04:15:43;;;;;;;5.00;0.55;;;;;;;9.71;100.00;97820.28;6227687;28;20053;-75
2023/11/03 04:18:45;;;;;;;5.68;2.22;;;;;;;9.69;100.00;97809.13;6227638;28;20129;-76
2023/11/03 04:21:46;;;;;;;3.10;0.68;;;;;;;9.68;100.00;97810.13;6226649;28;20053;-75
2023/11/03 04:24:49;;;;;;;5.63;1.10;;;;;;;9.72;100.00;97802.75;6227688;28;20116;-75
2023/11/03 04:27:50;;;;;;;2.35;0.60;;;;;;;9.69;100.00;97805.69;6227424;28;20049;-75
2023/11/03 04:30:52;;;;;;;4.32;0.77;;;;;;;9.76;100.00;97804.94;6227388;28;20057;-75
2023/11/03 04:33:53;;;;;;;4.88;0.70;;;;;;;9.75;100.00;97808.53;6227221;28;20057;-75
2023/11/03 04:36:54;;;;;;;4.30;0.80;;;;;;;9.73;100.00;97801.81;6226979;28;20046;-75
2023/11/03 04:39:57;;;;;;;3.95;0.90;;;;;;;9.72;100.00;97800.13;6227002;28;20434;-74
2023/11/03 04:42:59;;;;;;;6.70;0.80;;;;;;;9.80;100.00;97813.34;6226665;28;20439;-76
2023/11/03 04:46:00;;;;;;;7.70;0.80;;;;;;;9.78;100.00;97800.38;6227019;28;20465;-75
2023/11/03 04:49:03;;;;;;;4.60;0.70;;;;;;;9.78;100.00;97803.00;6226773;28;20347;-75
2023/11/03 04:52:04;;;;;;;3.10;0.73;;;;;;;9.82;100.00;97800.91;6225911;28;20050;-75
2023/11/03 04:55:08;;;;;;;3.85;0.60;;;;;;;9.80;100.00;97803.66;6226528;28;20362;-75
2023/11/03 04:58:10;;;;;;;1.35;0.60;;;;;;;9.76;100.00;97810.19;6226674;28;20056;-75
2023/11/03 05:01:13;;;;;;;4.65;0.80;;;;;;;9.77;100.00;97817.09;6249583;23;20057;-72
2023/11/03 05:04:16;;;;;;;4.00;0.60;;;;;;;9.79;100.00;97820.38;6248634;28;20072;-72
2023/11/03 05:07:18;;;;;;;3.78;0.70;;;;;;;9.82;100.00;97817.47;6236822;28;20077;-72
2023/11/03 05:10:20;;;;;;;6.65;0.80;;;;;;;9.85;100.00;97825.03;6243240;28;20060;-72
2023/11/03 05:13:22;;;;;;;3.15;0.68;;;;;;;9.88;100.00;97831.78;6250745;28;20334;-72
2023/11/03 05:16:23;;;;;;;2.72;0.65;;;;;;;9.83;100.00;97839.28;6250896;28;20400;-73
2023/11/03 05:19:27;;;;;;;1.73;0.60;;;;;;;9.84;100.00;97828.63;6251068;28;20060;-73
2023/11/03 05:22:28;;;;;;;2.92;0.40;;;;;;;9.90;100.00;97829.81;6250438;28;20056;-71
2023/11/03 05:25:31;;;;;;;1.80;0.50;;;;;;;9.88;100.00;97826.53;6250956;28;20057;-73
2023/11/03 05:28:33;;;;;;;1.92;0.70;;;;;;;9.91;100.00;97832.31;6250877;28;20056;-72
2023/11/03 05:31:34;;;;;;;0.55;0.30;;;;;;;9.90;100.00;97822.81;6250556;28;20045;-73
2023/11/03 05:34:36;;;;;;;1.92;0.80;;;;;;;9.89;100.00;97830.78;6250758;28;20045;-72
2023/11/03 05:37:37;;;;;;;1.88;0.50;;;;;;;9.80;100.00;97818.56;6250739;28;20437;-72
2023/11/03 05:40:40;;;;;;;3.08;0.45;;;;;;;9.81;100.00;97828.09;6250433;28;20046;-73
2023/11/03 05:43:41;;;;;;;1.92;0.57;;;;;;;9.84;100.00;97843.53;6250284;28;20053;-73
2023/11/03 05:46:43;;;;;;;1.67;0.55;;;;;;;9.84;100.00;97839.13;6250695;28;20045;-73
2023/11/03 05:49:44;;;;;;;1.65;0.35;;;;;;;9.89;100.00;97846.53;6250366;28;20112;-71
2023/11/03 05:52:45;;;;;;;1.55;0.30;;;;;;;9.96;100.00;97852.03;6250267;28;20060;-74
2023/11/03 05:55:48;;;;;;;2.22;0.60;;;;;;;9.97;100.00;97854.50;6250441;28;20046;-74
2023/11/03 05:58:50;;;;;;;5.18;0.85;;;;;;;10.00;100.00;97854.19;6250310;28;20076;-72
2023/11/03 06:01:51;;;;;;;1.02;0.50;;;;;;;10.03;100.00;97863.56;6249790;28;20049;-72
2023/11/03 06:04:53;;;;;;;1.50;0.50;;;;;;;10.03;100.00;97871.44;6250505;28;20433;-74
2023/11/03 06:07:54;;;;;;;2.03;0.47;;;;;;;9.96;100.00;97868.59;6249459;28;20349;-73
2023/11/03 06:10:57;;;;;;;7.75;0.65;;;;;;;10.01;100.00;97873.38;6249498;28;20049;-74
2023/11/03 06:13:58;;;;;;;2.45;0.50;;;;;;;10.00;100.00;97869.94;6248719;28;20045;-71
2023/11/03 06:17:00;;;;;;;2.58;0.57;;;;;;;10.00;100.00;97875.19;6253433;28;20484;-71
2023/11/03 06:20:02;;;;;;;5.18;0.65;;;;;;;10.00;100.00;97884.88;6252329;28;20045;-73
2023/11/03 06:23:03;;;;;;;6.32;1.08;;;;;;;10.03;100.00;97893.25;6253759;28;20050;-71
2023/11/03 06:26:07;;;;;;;0.80;0.68;;;;;;;9.98;100.00;97895.47;6254492;28;20048;-74
2023/11/03 06:29:08;;;;;;;2.40;0.70;;;;;;;9.92;100.00;97901.34;6254184;28;20052;-71
2023/11/03 06:32:09;;;;;;;2.22;0.57;;;;;;;9.88;100.00;97903.41;6254014;28;20052;-71
2023/11/03 06:35:11;;;;;;;3.38;0.70;;;;;;;9.89;100.00;97899.81;6254156;28;20057;-72
2023/11/03 06:38:12;;;;;;;2.67;0.70;;;;;;;9.93;100.00;97902.97;6254329;28;20049;-73
2023/11/03 06:41:15;;;;;;;6.20;0.85;;;;;;;10.00;100.00;97909.28;6254085;28;20072;-73
2023/11/03 06:44:16;;;;;;;1.73;0.55;;;;;;;10.01;100.00;97912.75;6254426;28;20327;-73
2023/11/03 06:47:18;;;;;;;1.08;0.50;;;;;;;10.02;100.00;97915.22;6253914;28;20041;-75
2023/11/03 06:50:19;;;;;;;1.23;0.50;;;;;;;10.02;100.00;97919.63;6253595;28;20060;-74
2023/11/03 06:53:21;;;;;;;2.25;0.40;;;;;;;9.99;100.00;97919.91;6253328;28;20057;-75
2023/11/03 06:56:23;;;;;;;1.58;0.60;;;;;;;10.07;100.00;97926.06;6252993;28;20048;-75
2023/11/03 06:59:25;;;;;;;4.45;0.70;;;;;;;10.04;100.00;97915.91;6253220;28;20330;-75
2023/11/03 07:02:26;;;;;;;6.75;0.75;;;;;;;9.99;100.00;97922.53;6252820;28;20333;-75
2023/11/03 07:05:28;;;;;;;3.95;0.70;;;;;;;9.91;100.00;97918.06;6253713;28;20524;-74
2023/11/03 07:08:29;;;;;;;2.05;0.60;;;;;;;9.92;100.00;97919.69;6253265;28;20080;-74
2023/11/03 07:11:33;;;;;;;6.95;1.02;;;;;;;10.00;100.00;97914.53;6253275;28;20080;-75
2023/11/03 07:14:35;;;;;;;1.70;0.55;;;;;;;9.98;100.00;97913.84;6253322;28;20050;-74
2023/11/03 07:17:37;;;;;;;4.45;0.63;;;;;;;9.96;100.00;97918.44;6253277;28;20132;-75
2023/11/03 07:20:38;;;;;;;1.85;0.50;;;;;;;9.98;100.00;97918.28;6250454;28;20306;-75
2023/11/03 07:23:40;;;;;;;2.53;0.50;;;;;;;10.02;100.00;97925.69;6252502;28;20046;-72
2023/11/03 07:26:43;;;;;;;4.00;0.60;;;;;;;10.03;100.00;97924.72;6252827;28;20441;-73
2023/11/03 07:29:44;;;;;;;1.85;0.85;;;;;;;10.12;100.00;97923.00;6252296;28;20049;-72
2023/11/03 07:32:46;;;;;;;2.13;0.35;;;;;;;10.11;100.00;97918.75;6252617;28;20088;-72
2023/11/03 07:35:47;;;;;;;1.45;0.60;;;;;;;10.05;100.00;97917.53;6252704;28;20444;-74
2023/11/03 07:38:49;;;;;;;0.80;0.47;;;;;;;10.07;100.00;97920.00;6252550;28;20045;-73
2023/11/03 07:41:52;;;;;;;1.42;0.50;;;;;;;10.10;100.00;97922.34;6252304;28;20049;-73
2023/11/03 07:44:54;;;;;;;1.13;0.38;;;;;;;10.20;100.00;97925.72;6252757;28;20050;-73
2023/11/03 07:47:56;;;;;;;3.35;0.65;;;;;;;10.24;100.00;97928.88;6252422;28;20053;-72
2023/11/03 07:50:57;;;;;;;2.80;0.52;;;;;;;10.26;100.00;97947.94;6249258;28;20057;-71
2023/11/03 07:53:59;;;;;;;1.20;0.55;;;;;;;10.24;100.00;97947.25;6245299;28;20060;-72
2023/11/03 07:57:02;;;;;;;1.67;0.95;;;;;;;10.24;100.00;97955.97;6249812;28;20441;-73
2023/11/03 08:00:04;;;;;;;2.15;0.68;;;;;;;10.21;100.00;97956.22;6251861;28;20053;-73
2023/11/03 08:03:07;;;;;;;0.73;0.55;;;;;;;10.26;100.00;97961.06;6252002;28;20365;-73
2023/11/03 08:06:09;;;;;;;1.55;0.70;;;;;;;10.25;100.00;97955.00;6249350;28;20120;-73
2023/11/03 08:09:11;;;;;;;6.75;0.73;;;;;;;10.24;100.00;97963.84;6251961;28;20183;-73
2023/11/03 08:12:14;;;;;;;8.30;0.90;;;;;;;10.24;100.00;97961.22;6251051;28;20057;-74
2023/11/03 08:15:16;;;;;;;3.67;0.95;;;;;;;10.29;100.00;97968.66;6251061;28;20410;-73
2023/11/03 08:18:17;;;;;;;0.50;0.50;;;;;;;10.32;100.00;97971.00;6252030;28;20056;-74
2023/11/03 08:21:19;;;;;;;0.98;0.43;;;;;;;10.30;100.00;97979.00;6243289;28;20053;-71
2023/11/03 08:24:20;;;;;;;1.80;1.00;;;;;;;10.32;100.00;97995.44;6249592;28;20045;-72
2023/11/03 08:27:23;;;;;;;1.95;0.70;;;;;;;10.34;100.00;98006.59;6251950;28;20061;-72
2023/11/03 08:30:25;;;;;;;9.98;0.93;;;;;;;10.38;100.00;98009.78;6248474;28;20085;-73
2023/11/03 08:33:26;;;;;;;2.58;0.77;;;;;;;10.27;100.00;98018.69;6251398;28;20049;-72
2023/11/03 08:36:28;;;;;;;3.15;0.80;;;;;;;10.30;100.00;98015.75;6249952;28;20132;-74
2023/11/03 08:39:29;;;;;;;5.05;1.02;;;;;;;10.32;100.00;98015.63;6250674;28;20037;-74
2023/11/03 08:42:32;;;;;;;1.85;0.85;;;;;;;10.25;100.00;98031.13;6250665;28;20453;-72
2023/11/03 08:45:33;;;;;;;1.00;0.75;;;;;;;10.19;100.00;98036.94;6251311;28;20053;-74
2023/11/03 08:48:36;;;;;;;2.97;0.82;;;;;;;10.23;100.00;98047.97;6244852;28;20041;-71
2023/11/03 08:51:37;;;;;;;2.38;0.82;;;;;;;10.23;100.00;98048.78;6250576;28;20088;-72
2023/11/03 08:54:39;;;;;;;3.65;1.00;;;;;;;10.21;100.00;98052.53;6251289;28;20434;-72
2023/11/03 08:57:43;;;;;;;5.65;1.08;;;;;;;10.28;100.00;98051.84;6250040;28;20099;-72
2023/11/03 09:00:45;;;;;;;4.28;1.02;;;;;;;10.24;100.00;98060.97;6249923;28;20045;-72
2023/11/03 09:03:46;;;;;;;1.00;0.60;;;;;;;10.27;100.00;98060.69;6246463;28;20049;-73
2023/11/03 09:06:48;;;;;;;2.10;0.77;;;;;;;10.33;100.00;98067.13;6251091;28;20136;-73
2023/11/03 09:09:51;;;;;;;3.00;1.00;;;;;;;10.23;100.00;98064.53;6250520;28;20052;-72
2023/11/03 09:12:54;;;;;;;2.63;1.05;;;;;;;10.27;100.00;98070.38;6250478;28;20054;-73
2023/11/03 09:15:56;;;;;;;1.55;0.73;;;;;;;10.21;100.00;98079.59;6250172;28;20057;-74
2023/11/03 09:18:58;;;;;;;4.15;0.80;;;;;;;10.22;100.00;98086.50;6249628;28;20045;-73
2023/11/03 09:22:01;;;;;;;5.85;1.55;;;;;;;10.23;100.00;98098.66;6247240;28;20129;-71
2023/11/03 09:25:03;;;;;;;0.52;0.50;;;;;;;10.23;100.00;98098.66;6250314;28;20041;-74
2023/11/03 09:28:06;;;;;;;1.65;0.80;;;;;;;10.21;100.00;98108.47;6248364;28;20116;-72
2023/11/03 09:31:07;;;;;;;3.08;0.85;;;;;;;10.15;100.00;98103.78;6246697;28;20327;-71
2023/11/03 09:34:09;;;;;;;4.88;0.70;;;;;;;10.18;100.00;98102.69;6247153;28;20053;-73
2023/11/03 09:37:10;;;;;;;1.50;0.68;;;;;;;10.20;100.00;98101.56;6249832;28;20115;-73
2023/11/03 09:40:16;;;;;;;9.80;1.00;;;;;;;10.10;100.00;98111.28;6249948;28;20045;-77
2023/11/03 09:43:20;;;;;;;7.60;2.30;;;;;;;10.21;100.00;98113.72;6250050;28;20064;-77
2023/11/03 09:46:23;;;;;;;3.65;0.75;;;;;;;10.14;100.00;98110.84;6247669;28;20080;-74
2023/11/03 09:49:24;;;;;;;2.47;0.57;;;;;;;10.25;100.00;98122.16;6249124;28;20044;-75
2023/11/03 09:52:32;;;;;;;4.50;0.88;;;;;;;10.36;100.00;98120.19;6249036;28;20068;-75
2023/11/03 09:55:36;;;;;;;5.60;1.20;;;;;;;10.36;100.00;98122.00;6249571;28;20345;-73
2023/11/03 09:58:39;;;;;;;2.90;1.23;;;;;;;10.39;100.00;98111.19;6247230;28;20041;-75
2023/11/03 10:01:41;;;;;;;3.70;1.20;;;;;;;10.48;100.00;98102.44;6248941;28;20049;-73
2023/11/03 10:04:42;;;;;;;4.75;2.22;;;;;;;10.57;100.00;98124.34;6250065;28;20053;-74
2023/11/03 10:07:55;;;;;;;5.05;1.08;;;;;;;10.60;100.00;98109.13;6249828;28;20057;-76
2023/11/03 10:10:58;;;;;;;1.23;0.70;;;;;;;10.59;100.00;98125.06;6247043;28;20061;-77
2023/11/03 10:14:01;;;;;;;1.27;0.77;;;;;;;10.63;100.00;98139.56;6249089;28;20065;-77
2023/11/03 10:17:03;;;;;;;1.55;0.63;;;;;;;10.69;100.00;98141.59;6249728;28;20052;-76
2023/11/03 10:20:07;;;;;;;2.72;0.80;;;;;;;10.65;100.00;98135.78;6249171;28;20354;-77
2023/11/03 10:23:08;;;;;;;2.45;0.90;;;;;;;10.63;100.00;98145.63;6249267;28;20045;-77
2023/11/03 10:26:09;;;;;;;8.85;1.00;;;;;;;10.59;100.00;98149.50;6249670;28;20045;-77
2023/11/03 10:29:13;;;;;;;3.88;0.88;;;;;;;10.62;100.00;98149.19;6249444;28;20037;-74
2023/11/03 10:32:14;;;;;;;1.85;0.68;;;;;;;10.58;100.00;98149.63;6248957;28;20053;-72
2023/11/03 10:35:16;;;;;;;6.95;1.50;;;;;;;10.60;100.00;98164.28;6249410;28;20045;-76
2023/11/03 10:38:19;;;;;;;7.47;1.15;;;;;;;10.54;100.00;98162.25;6246818;28;20061;-78
2023/11/03 10:41:21;;;;;;;6.80;0.93;;;;;;;10.55;100.00;98157.81;6249455;28;20120;-80
2023/11/03 10:44:30;;;;;;;3.30;2.05;;;;;;;10.57;100.00;98153.25;6250037;28;20058;-78
2023/11/03 10:47:37;;;;;;;4.95;1.23;;;;;;;10.60;100.00;98164.28;6250071;28;20136;-77
2023/11/03 10:50:51;;;;;;;9.77;1.25;;;;;;;10.55;100.00;98155.19;6249873;28;20139;-76
2023/11/03 10:54:05;;;;;;;4.85;1.27;;;;;;;10.56;100.00;98160.31;6249620;28;20057;-76
2023/11/03 10:57:08;;;;;;;2.88;0.95;;;;;;;10.50;100.00;98162.69;6249919;28;20056;-76
2023/11/03 11:00:20;;;;;;;3.90;0.93;;;;;;;10.49;100.00;98158.38;6247737;28;20049;-76
2023/11/03 11:03:25;;;;;;;2.60;1.10;;;;;;;10.53;100.00;98160.56;6253814;28;20056;-72
2023/11/03 11:06:30;;;;;;;2.28;0.63;;;;;;;10.48;100.00;98170.69;6253928;28;20050;-75
2023/11/03 11:09:38;;;;;;;7.47;1.10;;;;;;;10.50;100.00;98166.13;6254258;28;20045;-75
2023/11/03 11:12:47;;;;;;;3.63;0.90;;;;;;;10.58;100.00;98163.63;6253543;28;20458;-72
2023/11/03 11:16:08;;;;;;;7.57;0.98;;;;;;;10.62;100.00;98161.50;6253694;28;20053;-71
2023/11/03 11:19:14;;;;;;;3.10;1.00;;;;;;;10.82;100.00;98160.44;6252514;28;20045;-72
2023/11/03 11:22:19;;;;;;;6.65;1.20;;;;;;;10.92;100.00;98168.28;6244633;28;20056;-72
2023/11/03 11:25:20;;;;;;;4.32;1.13;;;;;;;10.97;100.00;98171.28;6252864;28;20059;-71
2023/11/03 11:28:32;;;;;;;5.15;1.02;;;;;;;10.91;100.00;98172.69;6253595;28;20049;-72
2023/11/03 11:31:38;;;;;;;1.80;1.08;;;;;;;10.94;100.00;98168.94;6253182;28;20053;-73
2023/11/03 11:34:42;;;;;;;3.72;0.70;;;;;;;10.96;100.00;98172.25;6248204;28;20056;-74
2023/11/03 11:37:44;;;;;;;4.97;1.20;;;;;;;10.99;100.00;98184.25;6253026;28;20058;-74
2023/11/03 11:40:46;;;;;;;3.55;0.88;;;;;;;11.04;100.00;98172.34;6253023;28;20326;-75
2023/11/03 11:43:50;;;;;;;14.63;1.73;;;;;;;11.02;100.00;98186.59;6252376;28;20366;-73
2023/11/03 11:46:56;;;;;;;4.57;1.10;;;;;;;11.02;100.00;98182.19;6252890;28;20128;-75
2023/11/03 11:49:59;;;;;;;7.90;1.00;;;;;;;11.02;100.00;98187.44;6253118;28;20046;-73
2023/11/03 11:53:02;;;;;;;5.07;1.27;;;;;;;10.99;100.00;98198.25;6252457;28;20180;-76
2023/11/03 11:56:05;;;;;;;2.40;0.80;;;;;;;11.02;100.00;98192.69;6252622;28;20049;-79
2023/11/03 11:59:09;;;;;;;7.78;1.30;;;;;;;11.05;100.00;98195.03;6252670;28;20124;-79
2023/11/03 12:02:12;;;;;;;4.18;1.10;;;;;;;11.31;100.00;98186.41;6252190;28;20055;-75
2023/11/03 12:05:13;;;;;;;4.47;0.90;;;;;;;11.26;100.00;98199.16;6251621;28;20053;-74
2023/11/03 12:08:14;;;;;;;10.60;1.35;;;;;;;11.21;100.00;98197.00;6251488;28;20358;-74
2023/11/03 12:11:16;;;;;;;5.93;1.55;;;;;;;11.34;100.00;98207.16;6252101;28;20053;-75
2023/11/03 12:14:18;;;;;;;6.93;1.80;;;;;;;11.35;100.00;98209.63;6251248;28;20438;-76
2023/11/03 12:17:21;;;;;;;4.57;1.10;;;;;;;11.33;100.00;98197.63;6252436;28;20127;-74
2023/11/03 12:20:22;;;;;;;4.00;0.90;;;;;;;11.28;100.00;98219.09;6251900;28;20052;-75
2023/11/03 12:23:24;;;;;;;7.85;1.13;;;;;;;11.16;100.00;98213.22;6251542;28;20060;-74
2023/11/03 12:26:26;;;;;;;7.32;1.35;;;;;;;11.23;100.00;98217.91;6252085;28;20369;-75
2023/11/03 12:29:32;;;;;;;2.97;1.05;;;;;;;11.37;100.00;98207.69;6250792;28;20072;-73
2023/11/03 12:32:35;;;;;;;4.72;1.63;;;;;;;11.39;100.00;98210.97;6248466;28;20057;-74
2023/11/03 12:35:36;;;;;;;3.42;1.00;;;;;;;11.32;100.00;98202.06;6249975;28;20465;-74
2023/11/03 12:38:45;;;;;;;9.70;1.15;;;;;;;11.45;100.00;98204.31;6250783;28;20104;-75
2023/11/03 12:42:00;;;;;;;7.53;1.25;;;;;;;11.53;100.00;98204.38;6249353;28;20049;-74
2023/11/03 12:45:03;;;;;;;10.63;1.23;;;;;;;11.61;100.00;98207.06;6250951;28;20049;-73
2023/11/03 12:48:17;;;;;;;3.80;1.42;;;;;;;11.62;100.00;98216.63;6249584;28;20469;-73
2023/11/03 12:51:30;;;;;;;3.67;0.95;;;;;;;11.67;100.00;98213.53;6250428;28;20053;-74
2023/11/03 12:54:32;;;;;;;12.82;1.83;;;;;;;11.65;100.00;98232.09;6243411;28;20353;-74
2023/11/03 12:57:34;;;;;;;7.90;1.40;;;;;;;11.60;100.00;98234.38;6251471;28;20049;-74
2023/11/03 13:00:36;;;;;;;3.65;1.10;;;;;;;11.61;100.00;98233.38;6251100;28;20053;-72
2023/11/03 13:03:40;;;;;;;7.00;1.30;;;;;;;11.60;100.00;98231.75;6250960;28;20175;-73
2023/11/03 13:06:42;;;;;;;10.35;1.52;;;;;;;11.54;100.00;98252.56;6250535;28;20053;-75
2023/11/03 13:09:44;;;;;;;5.25;0.98;;;;;;;11.44;100.00;98247.34;6251243;28;20068;-73
2023/11/03 13:12:46;;;;;;;6.07;1.23;;;;;;;11.49;100.00;98254.78;6250586;28;20045;-74
2023/11/03 13:15:47;;;;;;;3.05;1.50;;;;;;;11.47;100.00;98259.38;6251091;28;20053;-74
2023/11/03 13:18:50;;;;;;;4.93;1.45;;;;;;;11.53;100.00;98271.94;6250809;28;20491;-74
2023/11/03 13:21:53;;;;;;;4.93;1.30;;;;;;;11.45;100.00;98270.06;6250262;28;20061;-74
2023/11/03 13:24:54;;;;;;;6.22;1.65;;;;;;;11.47;100.00;98283.88;6250900;28;20045;-74
2023/11/03 13:27:56;;;;;;;12.48;1.90;;;;;;;11.49;100.00;98281.94;6250670;28;20045;-74
2023/11/03 13:30:57;;;;;;;10.32;1.67;;;;;;;11.50;100.00;98280.97;6250691;28;20045;-74
2023/11/03 13:34:00;;;;;;;10.68;1.60;;;;;;;11.42;100.00;98291.38;6249798;28;20065;-73
2023/11/03 13:37:01;;;;;;;5.15;1.38;;;;;;;11.40;100.00;98285.47;6250427;28;20437;-74
2023/11/03 13:40:05;;;;;;;13.10;1.55;;;;;;;11.39;100.00;98291.66;6250225;28;20091;-74
2023/11/03 13:43:07;;;;;;;11.35;2.47;;;;;;;11.35;100.00;98290.31;6249332;28;20049;-74
2023/11/03 13:46:09;;;;;;;5.13;1.17;;;;;;;11.35;100.00;98292.94;6248722;28;20335;-74
2023/11/03 13:49:13;;;;;;;8.93;1.73;;;;;;;11.41;100.00;98290.56;6249413;28;20045;-72
2023/11/03 13:52:14;;;;;;;8.55;1.25;;;;;;;11.42;100.00;98296.66;6244223;28;20045;-72
2023/11/03 13:55:16;;;;;;;6.75;1.20;;;;;;;11.41;100.00;98287.09;6245603;28;20044;-72
2023/11/03 13:58:18;;;;;;;6.43;1.15;;;;;;;11.46;100.00;98287.50;6247403;28;20048;-73
2023/11/03 14:01:19;;;;;;;5.43;1.20;;;;;;;11.51;100.00;98281.78;6248313;28;20041;-77
2023/11/03 14:04:22;;;;;;;8.77;1.63;;;;;;;11.40;100.00;98270.50;6249213;28;20119;-78
2023/11/03 14:07:24;;;;;;;8.57;1.35;;;;;;;11.35;100.00;98277.16;6244286;28;20041;-78
2023/11/03 14:10:25;;;;;;;3.75;1.40;;;;;;;11.32;100.00;98266.97;6244246;28;20053;-78